sensor_id;sensor_type;location;lat;lon;timestamp;P1;durP1;ratioP1;P2;durP2;ratioP2
60354;SDS011;46198;51.464;-0.066;2023-07-02T00:00:33;34.40;;;13.60;;
60354;SDS011;46198;51.464;-0.066;2023-07-02T00:03:03;31.40;;;12.73;;
60354;SDS011;46198;51.464;-0.066;2023-07-02T00:05:31;36.83;;;15.73;;
60354;SDS011;46198;51.464;-0.066;2023-07-02T00:07:59;31.40;;;14.32;;
60354;SDS011;46198;51.464;-0.066;2023-07-02T00:10:27;32.00;;;13.98;;
60354;SDS011;46198;51.464;-0.066;2023-07-02T00:12:56;31.95;;;14.57;;
60354;SDS011;46198;51.464;-0.066;2023-07-02T00:15:25;35.10;;;13.55;;
60354;SDS011;46198;51.464;-0.066;2023-07-02T00:17:56;30.55;;;13.05;;
60354;SDS011;46198;51.464;-0.066;2023-07-02T00:20:24;36.63;;;13.70;;
60354;SDS011;46198;51.464;-0.066;2023-07-02T00:22:52;35.35;;;14.75;;
60354;SDS011;46198;51.464;-0.066;2023-07-02T00:25:21;34.75;;;15.18;;
60354;SDS011;46198;51.464;-0.066;2023-07-02T00:27:49;35.78;;;14.90;;
60354;SDS011;46198;51.464;-0.066;2023-07-02T00:30:17;38.35;;;13.40;;
60354;SDS011;46198;51.464;-0.066;2023-07-02T00:32:47;32.28;;;14.27;;
60354;SDS011;46198;51.464;-0.066;2023-07-02T00:35:15;32.83;;;13.93;;
60354;SDS011;46198;51.464;-0.066;2023-07-02T00:37:43;35.10;;;13.70;;
60354;SDS011;46198;51.464;-0.066;2023-07-02T00:40:12;37.42;;;13.05;;
60354;SDS011;46198;51.464;-0.066;2023-07-02T00:42:40;38.28;;;14.30;;
60354;SDS011;46198;51.464;-0.066;2023-07-02T00:45:08;31.50;;;12.43;;
60354;SDS011;46198;51.464;-0.066;2023-07-02T00:47:37;32.05;;;12.75;;
60354;SDS011;46198;51.464;-0.066;2023-07-02T00:50:07;32.38;;;11.82;;
60354;SDS011;46198;51.464;-0.066;2023-07-02T00:52:36;31.60;;;11.75;;
60354;SDS011;46198;51.464;-0.066;2023-07-02T00:55:05;30.75;;;11.85;;
60354;SDS011;46198;51.464;-0.066;2023-07-02T00:57:34;28.65;;;11.00;;
60354;SDS011;46198;51.464;-0.066;2023-07-02T01:00:03;26.90;;;11.40;;
60354;SDS011;46198;51.464;-0.066;2023-07-02T01:02:32;29.27;;;10.85;;
60354;SDS011;46198;51.464;-0.066;2023-07-02T01:05:00;27.17;;;11.52;;
60354;SDS011;46198;51.464;-0.066;2023-07-02T01:07:30;35.03;;;11.63;;
60354;SDS011;46198;51.464;-0.066;2023-07-02T01:09:58;31.83;;;11.38;;
60354;SDS011;46198;51.464;-0.066;2023-07-02T01:12:27;29.52;;;11.10;;
60354;SDS011;46198;51.464;-0.066;2023-07-02T01:14:56;31.13;;;12.73;;
60354;SDS011;46198;51.464;-0.066;2023-07-02T01:17:30;26.05;;;11.38;;
60354;SDS011;46198;51.464;-0.066;2023-07-02T01:20:08;33.22;;;11.65;;
60354;SDS011;46198;51.464;-0.066;2023-07-02T01:22:38;33.08;;;11.45;;
60354;SDS011;46198;51.464;-0.066;2023-07-02T01:25:06;34.10;;;12.65;;
60354;SDS011;46198;51.464;-0.066;2023-07-02T01:27:36;28.70;;;11.57;;
60354;SDS011;46198;51.464;-0.066;2023-07-02T01:30:06;34.57;;;13.97;;
60354;SDS011;46198;51.464;-0.066;2023-07-02T01:32:37;33.95;;;12.70;;
60354;SDS011;46198;51.464;-0.066;2023-07-02T01:35:05;30.88;;;11.52;;
60354;SDS011;46198;51.464;-0.066;2023-07-02T01:37:36;36.08;;;12.35;;
60354;SDS011;46198;51.464;-0.066;2023-07-02T01:40:06;31.67;;;11.70;;
60354;SDS011;46198;51.464;-0.066;2023-07-02T01:42:35;30.17;;;11.90;;
60354;SDS011;46198;51.464;-0.066;2023-07-02T01:45:04;27.30;;;11.32;;
60354;SDS011;46198;51.464;-0.066;2023-07-02T01:47:33;38.10;;;12.30;;
60354;SDS011;46198;51.464;-0.066;2023-07-02T01:50:03;34.17;;;12.45;;
60354;SDS011;46198;51.464;-0.066;2023-07-02T01:55:02;34.00;;;10.73;;
60354;SDS011;46198;51.464;-0.066;2023-07-02T01:57:30;32.33;;;11.80;;
60354;SDS011;46198;51.464;-0.066;2023-07-02T01:59:58;27.48;;;10.55;;
60354;SDS011;46198;51.464;-0.066;2023-07-02T02:02:42;27.60;;;10.27;;
60354;SDS011;46198;51.464;-0.066;2023-07-02T02:05:10;28.07;;;10.43;;
60354;SDS011;46198;51.464;-0.066;2023-07-02T02:07:40;28.27;;;11.48;;
60354;SDS011;46198;51.464;-0.066;2023-07-02T02:10:09;33.53;;;12.15;;
60354;SDS011;46198;51.464;-0.066;2023-07-02T02:12:38;33.80;;;11.55;;
60354;SDS011;46198;51.464;-0.066;2023-07-02T02:15:06;29.42;;;10.90;;
60354;SDS011;46198;51.464;-0.066;2023-07-02T02:17:35;30.08;;;10.60;;
60354;SDS011;46198;51.464;-0.066;2023-07-02T02:20:04;29.80;;;9.90;;
60354;SDS011;46198;51.464;-0.066;2023-07-02T02:22:35;29.42;;;10.65;;
60354;SDS011;46198;51.464;-0.066;2023-07-02T02:25:06;26.85;;;10.05;;
60354;SDS011;46198;51.464;-0.066;2023-07-02T02:27:35;28.67;;;10.63;;
60354;SDS011;46198;51.464;-0.066;2023-07-02T02:30:04;30.02;;;10.93;;
60354;SDS011;46198;51.464;-0.066;2023-07-02T02:32:35;31.67;;;10.52;;
60354;SDS011;46198;51.464;-0.066;2023-07-02T02:35:07;29.90;;;11.32;;
60354;SDS011;46198;51.464;-0.066;2023-07-02T02:37:37;28.95;;;11.05;;
60354;SDS011;46198;51.464;-0.066;2023-07-02T02:40:09;32.88;;;10.55;;
60354;SDS011;46198;51.464;-0.066;2023-07-02T02:42:39;40.92;;;12.48;;
60354;SDS011;46198;51.464;-0.066;2023-07-02T02:45:08;28.90;;;10.73;;
60354;SDS011;46198;51.464;-0.066;2023-07-02T02:47:37;36.55;;;10.98;;
60354;SDS011;46198;51.464;-0.066;2023-07-02T02:50:06;29.25;;;10.27;;
60354;SDS011;46198;51.464;-0.066;2023-07-02T02:52:36;28.88;;;10.45;;
60354;SDS011;46198;51.464;-0.066;2023-07-02T02:55:05;31.17;;;10.57;;
60354;SDS011;46198;51.464;-0.066;2023-07-02T02:57:38;24.25;;;10.50;;
60354;SDS011;46198;51.464;-0.066;2023-07-02T03:00:06;32.50;;;10.80;;
60354;SDS011;46198;51.464;-0.066;2023-07-02T03:02:36;27.58;;;10.00;;
60354;SDS011;46198;51.464;-0.066;2023-07-02T03:05:04;32.47;;;11.25;;
60354;SDS011;46198;51.464;-0.066;2023-07-02T03:07:33;29.42;;;9.88;;
60354;SDS011;46198;51.464;-0.066;2023-07-02T03:10:02;26.17;;;10.38;;
60354;SDS011;46198;51.464;-0.066;2023-07-02T03:12:31;30.00;;;9.98;;
60354;SDS011;46198;51.464;-0.066;2023-07-02T03:15:00;24.73;;;10.13;;
60354;SDS011;46198;51.464;-0.066;2023-07-02T03:17:29;24.93;;;9.67;;
60354;SDS011;46198;51.464;-0.066;2023-07-02T03:19:57;25.88;;;9.95;;
60354;SDS011;46198;51.464;-0.066;2023-07-02T03:22:25;27.38;;;9.98;;
60354;SDS011;46198;51.464;-0.066;2023-07-02T03:24:53;28.75;;;9.10;;
60354;SDS011;46198;51.464;-0.066;2023-07-02T03:27:21;30.77;;;11.18;;
60354;SDS011;46198;51.464;-0.066;2023-07-02T03:29:51;29.17;;;9.98;;
60354;SDS011;46198;51.464;-0.066;2023-07-02T03:32:21;27.70;;;10.23;;
60354;SDS011;46198;51.464;-0.066;2023-07-02T03:34:49;28.77;;;10.57;;
60354;SDS011;46198;51.464;-0.066;2023-07-02T03:37:18;26.38;;;9.43;;
60354;SDS011;46198;51.464;-0.066;2023-07-02T03:39:46;30.92;;;11.10;;
60354;SDS011;46198;51.464;-0.066;2023-07-02T03:42:15;32.08;;;11.05;;
60354;SDS011;46198;51.464;-0.066;2023-07-02T03:44:43;28.90;;;10.75;;
60354;SDS011;46198;51.464;-0.066;2023-07-02T03:47:12;25.60;;;9.80;;
60354;SDS011;46198;51.464;-0.066;2023-07-02T03:49:44;31.67;;;10.52;;
60354;SDS011;46198;51.464;-0.066;2023-07-02T03:52:12;31.35;;;10.43;;
60354;SDS011;46198;51.464;-0.066;2023-07-02T03:54:40;30.05;;;10.25;;
60354;SDS011;46198;51.464;-0.066;2023-07-02T03:57:08;26.98;;;10.35;;
60354;SDS011;46198;51.464;-0.066;2023-07-02T03:59:36;28.20;;;9.57;;
60354;SDS011;46198;51.464;-0.066;2023-07-02T04:02:05;27.27;;;9.35;;
60354;SDS011;46198;51.464;-0.066;2023-07-02T04:04:33;29.10;;;10.32;;
60354;SDS011;46198;51.464;-0.066;2023-07-02T04:07:04;28.80;;;10.20;;
60354;SDS011;46198;51.464;-0.066;2023-07-02T04:12:01;30.45;;;9.45;;
60354;SDS011;46198;51.464;-0.066;2023-07-02T04:14:29;33.17;;;10.70;;
60354;SDS011;46198;51.464;-0.066;2023-07-02T04:16:58;28.02;;;9.85;;
60354;SDS011;46198;51.464;-0.066;2023-07-02T04:19:26;26.95;;;9.57;;
60354;SDS011;46198;51.464;-0.066;2023-07-02T04:21:54;33.00;;;9.90;;
60354;SDS011;46198;51.464;-0.066;2023-07-02T04:24:23;26.58;;;9.80;;
60354;SDS011;46198;51.464;-0.066;2023-07-02T04:26:52;25.13;;;9.18;;
60354;SDS011;46198;51.464;-0.066;2023-07-02T04:29:40;34.38;;;10.70;;
60354;SDS011;46198;51.464;-0.066;2023-07-02T04:32:09;29.80;;;9.65;;
60354;SDS011;46198;51.464;-0.066;2023-07-02T04:34:37;27.80;;;9.45;;
60354;SDS011;46198;51.464;-0.066;2023-07-02T04:37:05;26.63;;;8.15;;
60354;SDS011;46198;51.464;-0.066;2023-07-02T04:39:35;33.53;;;8.95;;
60354;SDS011;46198;51.464;-0.066;2023-07-02T04:42:03;30.05;;;9.45;;
60354;SDS011;46198;51.464;-0.066;2023-07-02T04:44:32;30.40;;;9.77;;
60354;SDS011;46198;51.464;-0.066;2023-07-02T04:47:00;28.77;;;9.45;;
60354;SDS011;46198;51.464;-0.066;2023-07-02T04:49:29;38.38;;;12.23;;
60354;SDS011;46198;51.464;-0.066;2023-07-02T04:51:57;24.00;;;8.40;;
60354;SDS011;46198;51.464;-0.066;2023-07-02T04:54:25;26.50;;;9.50;;
60354;SDS011;46198;51.464;-0.066;2023-07-02T04:56:55;25.75;;;8.63;;
60354;SDS011;46198;51.464;-0.066;2023-07-02T04:59:27;21.30;;;9.25;;
60354;SDS011;46198;51.464;-0.066;2023-07-02T05:01:55;25.20;;;9.13;;
60354;SDS011;46198;51.464;-0.066;2023-07-02T05:04:26;30.73;;;9.38;;
60354;SDS011;46198;51.464;-0.066;2023-07-02T05:06:54;29.98;;;8.93;;
60354;SDS011;46198;51.464;-0.066;2023-07-02T05:09:22;29.63;;;9.23;;
60354;SDS011;46198;51.464;-0.066;2023-07-02T05:11:50;23.65;;;8.40;;
60354;SDS011;46198;51.464;-0.066;2023-07-02T05:14:20;29.50;;;9.80;;
60354;SDS011;46198;51.464;-0.066;2023-07-02T05:16:49;21.33;;;8.73;;
60354;SDS011;46198;51.464;-0.066;2023-07-02T05:19:18;23.20;;;8.93;;
60354;SDS011;46198;51.464;-0.066;2023-07-02T05:21:46;27.77;;;10.43;;
60354;SDS011;46198;51.464;-0.066;2023-07-02T05:24:14;26.58;;;7.95;;
60354;SDS011;46198;51.464;-0.066;2023-07-02T05:26:42;26.85;;;8.50;;
60354;SDS011;46198;51.464;-0.066;2023-07-02T05:29:10;22.80;;;7.97;;
60354;SDS011;46198;51.464;-0.066;2023-07-02T05:31:40;27.90;;;9.05;;
60354;SDS011;46198;51.464;-0.066;2023-07-02T05:34:08;28.63;;;8.17;;
60354;SDS011;46198;51.464;-0.066;2023-07-02T05:36:37;23.42;;;8.25;;
60354;SDS011;46198;51.464;-0.066;2023-07-02T05:39:05;23.88;;;8.93;;
60354;SDS011;46198;51.464;-0.066;2023-07-02T05:41:33;22.17;;;8.27;;
60354;SDS011;46198;51.464;-0.066;2023-07-02T05:44:01;25.83;;;8.95;;
60354;SDS011;46198;51.464;-0.066;2023-07-02T05:46:30;24.77;;;8.07;;
60354;SDS011;46198;51.464;-0.066;2023-07-02T05:49:00;21.95;;;8.18;;
60354;SDS011;46198;51.464;-0.066;2023-07-02T05:51:28;26.73;;;8.73;;
60354;SDS011;46198;51.464;-0.066;2023-07-02T05:53:56;21.45;;;7.88;;
60354;SDS011;46198;51.464;-0.066;2023-07-02T05:56:24;21.58;;;8.25;;
60354;SDS011;46198;51.464;-0.066;2023-07-02T05:58:53;23.20;;;7.82;;
60354;SDS011;46198;51.464;-0.066;2023-07-02T06:01:24;24.35;;;8.07;;
60354;SDS011;46198;51.464;-0.066;2023-07-02T06:03:52;23.30;;;8.35;;
60354;SDS011;46198;51.464;-0.066;2023-07-02T06:06:24;21.85;;;7.57;;
60354;SDS011;46198;51.464;-0.066;2023-07-02T06:09:07;17.70;;;7.70;;
60354;SDS011;46198;51.464;-0.066;2023-07-02T06:11:35;21.75;;;6.50;;
60354;SDS011;46198;51.464;-0.066;2023-07-02T06:14:05;24.73;;;7.35;;
60354;SDS011;46198;51.464;-0.066;2023-07-02T06:16:33;23.55;;;7.57;;
60354;SDS011;46198;51.464;-0.066;2023-07-02T06:19:02;18.80;;;6.57;;
60354;SDS011;46198;51.464;-0.066;2023-07-02T06:21:31;20.27;;;6.82;;
60354;SDS011;46198;51.464;-0.066;2023-07-02T06:24:00;20.75;;;6.78;;
60354;SDS011;46198;51.464;-0.066;2023-07-02T06:26:29;19.70;;;6.95;;
60354;SDS011;46198;51.464;-0.066;2023-07-02T06:28:59;17.63;;;6.03;;
60354;SDS011;46198;51.464;-0.066;2023-07-02T06:31:27;20.02;;;6.43;;
60354;SDS011;46198;51.464;-0.066;2023-07-02T06:33:56;16.48;;;7.35;;
60354;SDS011;46198;51.464;-0.066;2023-07-02T06:36:24;17.90;;;6.20;;
60354;SDS011;46198;51.464;-0.066;2023-07-02T06:38:53;20.45;;;5.60;;
60354;SDS011;46198;51.464;-0.066;2023-07-02T06:41:21;14.38;;;6.53;;
60354;SDS011;46198;51.464;-0.066;2023-07-02T06:43:50;24.30;;;6.53;;
60354;SDS011;46198;51.464;-0.066;2023-07-02T06:46:19;15.35;;;6.13;;
60354;SDS011;46198;51.464;-0.066;2023-07-02T06:48:47;18.45;;;6.80;;
60354;SDS011;46198;51.464;-0.066;2023-07-02T06:51:15;13.85;;;5.60;;
60354;SDS011;46198;51.464;-0.066;2023-07-02T06:53:44;19.27;;;6.00;;
60354;SDS011;46198;51.464;-0.066;2023-07-02T06:56:14;14.27;;;5.63;;
60354;SDS011;46198;51.464;-0.066;2023-07-02T06:58:43;17.48;;;5.38;;
60354;SDS011;46198;51.464;-0.066;2023-07-02T07:01:11;18.45;;;6.93;;
60354;SDS011;46198;51.464;-0.066;2023-07-02T07:03:39;14.13;;;5.13;;
60354;SDS011;46198;51.464;-0.066;2023-07-02T07:06:07;15.95;;;6.25;;
60354;SDS011;46198;51.464;-0.066;2023-07-02T07:08:36;17.60;;;5.78;;
60354;SDS011;46198;51.464;-0.066;2023-07-02T07:11:06;24.17;;;5.50;;
60354;SDS011;46198;51.464;-0.066;2023-07-02T07:13:36;16.98;;;5.82;;
60354;SDS011;46198;51.464;-0.066;2023-07-02T07:16:04;17.17;;;5.60;;
60354;SDS011;46198;51.464;-0.066;2023-07-02T07:18:32;15.98;;;5.10;;
60354;SDS011;46198;51.464;-0.066;2023-07-02T07:21:01;14.95;;;5.30;;
60354;SDS011;46198;51.464;-0.066;2023-07-02T07:23:29;14.60;;;5.97;;
60354;SDS011;46198;51.464;-0.066;2023-07-02T07:25:57;12.00;;;5.22;;
60354;SDS011;46198;51.464;-0.066;2023-07-02T07:28:25;14.63;;;5.20;;
60354;SDS011;46198;51.464;-0.066;2023-07-02T07:30:55;13.00;;;5.68;;
60354;SDS011;46198;51.464;-0.066;2023-07-02T07:33:23;18.75;;;6.25;;
60354;SDS011;46198;51.464;-0.066;2023-07-02T07:35:51;11.48;;;4.85;;
60354;SDS011;46198;51.464;-0.066;2023-07-02T07:38:19;13.23;;;5.20;;
60354;SDS011;46198;51.464;-0.066;2023-07-02T07:40:47;11.88;;;5.30;;
60354;SDS011;46198;51.464;-0.066;2023-07-02T07:43:16;16.20;;;5.10;;
60354;SDS011;46198;51.464;-0.066;2023-07-02T07:45:44;12.02;;;5.13;;
60354;SDS011;46198;51.464;-0.066;2023-07-02T07:48:14;10.77;;;4.43;;
60354;SDS011;46198;51.464;-0.066;2023-07-02T07:50:43;12.95;;;4.50;;
60354;SDS011;46198;51.464;-0.066;2023-07-02T07:53:11;11.95;;;4.53;;
60354;SDS011;46198;51.464;-0.066;2023-07-02T07:55:40;10.93;;;4.13;;
60354;SDS011;46198;51.464;-0.066;2023-07-02T07:58:08;14.63;;;4.47;;
60354;SDS011;46198;51.464;-0.066;2023-07-02T08:00:36;11.55;;;4.88;;
60354;SDS011;46198;51.464;-0.066;2023-07-02T08:03:05;13.20;;;4.53;;
60354;SDS011;46198;51.464;-0.066;2023-07-02T08:05:34;11.80;;;5.13;;
60354;SDS011;46198;51.464;-0.066;2023-07-02T08:08:03;12.25;;;4.57;;
60354;SDS011;46198;51.464;-0.066;2023-07-02T08:10:31;10.63;;;5.00;;
60354;SDS011;46198;51.464;-0.066;2023-07-02T08:12:59;10.50;;;4.18;;
60354;SDS011;46198;51.464;-0.066;2023-07-02T08:15:27;10.77;;;4.22;;
60354;SDS011;46198;51.464;-0.066;2023-07-02T08:17:56;8.75;;;3.88;;
60354;SDS011;46198;51.464;-0.066;2023-07-02T08:20:25;10.70;;;4.50;;
60354;SDS011;46198;51.464;-0.066;2023-07-02T08:22:55;14.77;;;4.93;;
60354;SDS011;46198;51.464;-0.066;2023-07-02T08:25:23;8.68;;;4.10;;
60354;SDS011;46198;51.464;-0.066;2023-07-02T08:27:53;10.65;;;4.20;;
60354;SDS011;46198;51.464;-0.066;2023-07-02T08:30:22;13.57;;;4.95;;
60354;SDS011;46198;51.464;-0.066;2023-07-02T08:32:52;9.35;;;4.60;;
60354;SDS011;46198;51.464;-0.066;2023-07-02T08:35:22;12.32;;;3.88;;
60354;SDS011;46198;51.464;-0.066;2023-07-02T08:37:51;11.27;;;4.88;;
60354;SDS011;46198;51.464;-0.066;2023-07-02T08:40:20;9.25;;;4.05;;
60354;SDS011;46198;51.464;-0.066;2023-07-02T08:42:48;13.00;;;4.22;;
60354;SDS011;46198;51.464;-0.066;2023-07-02T08:45:17;8.65;;;3.80;;
60354;SDS011;46198;51.464;-0.066;2023-07-02T08:47:47;10.13;;;3.92;;
60354;SDS011;46198;51.464;-0.066;2023-07-02T08:50:17;9.00;;;3.90;;
60354;SDS011;46198;51.464;-0.066;2023-07-02T08:52:46;11.40;;;4.47;;
60354;SDS011;46198;51.464;-0.066;2023-07-02T08:55:14;9.35;;;4.10;;
60354;SDS011;46198;51.464;-0.066;2023-07-02T08:57:47;9.60;;;4.05;;
60354;SDS011;46198;51.464;-0.066;2023-07-02T09:00:18;9.48;;;3.90;;
60354;SDS011;46198;51.464;-0.066;2023-07-02T09:02:47;8.53;;;3.67;;
60354;SDS011;46198;51.464;-0.066;2023-07-02T09:05:15;8.20;;;3.95;;
60354;SDS011;46198;51.464;-0.066;2023-07-02T09:07:44;9.15;;;3.47;;
60354;SDS011;46198;51.464;-0.066;2023-07-02T09:10:25;7.72;;;3.90;;
60354;SDS011;46198;51.464;-0.066;2023-07-02T09:13:05;11.23;;;4.32;;
60354;SDS011;46198;51.464;-0.066;2023-07-02T09:15:36;9.75;;;3.38;;
60354;SDS011;46198;51.464;-0.066;2023-07-02T09:18:18;12.85;;;4.13;;
60354;SDS011;46198;51.464;-0.066;2023-07-02T09:20:50;8.93;;;3.55;;
60354;SDS011;46198;51.464;-0.066;2023-07-02T09:23:19;8.93;;;3.97;;
60354;SDS011;46198;51.464;-0.066;2023-07-02T09:25:47;8.93;;;3.70;;
60354;SDS011;46198;51.464;-0.066;2023-07-02T09:28:18;9.63;;;3.70;;
60354;SDS011;46198;51.464;-0.066;2023-07-02T09:30:51;7.90;;;3.60;;
60354;SDS011;46198;51.464;-0.066;2023-07-02T09:33:21;9.27;;;3.80;;
60354;SDS011;46198;51.464;-0.066;2023-07-02T09:35:49;8.80;;;3.38;;
60354;SDS011;46198;51.464;-0.066;2023-07-02T09:38:19;10.15;;;3.88;;
60354;SDS011;46198;51.464;-0.066;2023-07-02T09:40:51;9.30;;;3.60;;
60354;SDS011;46198;51.464;-0.066;2023-07-02T09:43:21;7.22;;;3.72;;
60354;SDS011;46198;51.464;-0.066;2023-07-02T09:45:52;15.25;;;4.70;;
60354;SDS011;46198;51.464;-0.066;2023-07-02T09:48:23;8.52;;;3.47;;
60354;SDS011;46198;51.464;-0.066;2023-07-02T09:50:53;10.35;;;3.97;;
60354;SDS011;46198;51.464;-0.066;2023-07-02T09:53:22;7.25;;;3.53;;
60354;SDS011;46198;51.464;-0.066;2023-07-02T09:55:50;6.65;;;3.50;;
60354;SDS011;46198;51.464;-0.066;2023-07-02T09:58:19;14.68;;;6.20;;
60354;SDS011;46198;51.464;-0.066;2023-07-02T10:00:49;10.38;;;3.67;;
60354;SDS011;46198;51.464;-0.066;2023-07-02T10:03:27;7.13;;;3.25;;
60354;SDS011;46198;51.464;-0.066;2023-07-02T10:06:03;9.77;;;3.85;;
60354;SDS011;46198;51.464;-0.066;2023-07-02T10:08:32;9.30;;;3.85;;
60354;SDS011;46198;51.464;-0.066;2023-07-02T10:11:10;11.25;;;3.97;;
60354;SDS011;46198;51.464;-0.066;2023-07-02T10:13:39;7.25;;;3.67;;
60354;SDS011;46198;51.464;-0.066;2023-07-02T10:16:10;8.18;;;3.33;;
60354;SDS011;46198;51.464;-0.066;2023-07-02T10:18:39;12.15;;;4.22;;
60354;SDS011;46198;51.464;-0.066;2023-07-02T10:21:18;8.50;;;3.70;;
60354;SDS011;46198;51.464;-0.066;2023-07-02T10:23:46;7.35;;;3.55;;
60354;SDS011;46198;51.464;-0.066;2023-07-02T10:26:15;10.43;;;3.55;;
60354;SDS011;46198;51.464;-0.066;2023-07-02T10:28:55;8.40;;;3.05;;
60354;SDS011;46198;51.464;-0.066;2023-07-02T10:31:25;9.18;;;3.50;;
60354;SDS011;46198;51.464;-0.066;2023-07-02T10:33:54;7.57;;;3.58;;
60354;SDS011;46198;51.464;-0.066;2023-07-02T10:36:23;10.02;;;4.18;;
60354;SDS011;46198;51.464;-0.066;2023-07-02T10:38:52;8.93;;;3.78;;
60354;SDS011;46198;51.464;-0.066;2023-07-02T10:41:24;7.38;;;3.15;;
60354;SDS011;46198;51.464;-0.066;2023-07-02T10:43:54;10.63;;;3.10;;
60354;SDS011;46198;51.464;-0.066;2023-07-02T10:46:44;7.60;;;3.42;;
60354;SDS011;46198;51.464;-0.066;2023-07-02T10:49:12;7.50;;;2.95;;
60354;SDS011;46198;51.464;-0.066;2023-07-02T10:51:41;5.53;;;2.97;;
60354;SDS011;46198;51.464;-0.066;2023-07-02T10:54:09;9.05;;;3.60;;
60354;SDS011;46198;51.464;-0.066;2023-07-02T10:56:38;11.40;;;3.75;;
60354;SDS011;46198;51.464;-0.066;2023-07-02T10:59:09;8.27;;;3.90;;
60354;SDS011;46198;51.464;-0.066;2023-07-02T11:01:37;7.82;;;3.40;;
60354;SDS011;46198;51.464;-0.066;2023-07-02T11:04:06;8.68;;;3.90;;
60354;SDS011;46198;51.464;-0.066;2023-07-02T11:06:35;9.10;;;4.00;;
60354;SDS011;46198;51.464;-0.066;2023-07-02T11:09:03;8.82;;;4.30;;
60354;SDS011;46198;51.464;-0.066;2023-07-02T11:11:31;7.45;;;3.42;;
60354;SDS011;46198;51.464;-0.066;2023-07-02T11:13:59;7.65;;;3.72;;
60354;SDS011;46198;51.464;-0.066;2023-07-02T11:16:28;8.00;;;3.40;;
60354;SDS011;46198;51.464;-0.066;2023-07-02T11:19:07;9.10;;;4.13;;
60354;SDS011;46198;51.464;-0.066;2023-07-02T11:21:37;8.55;;;3.92;;
60354;SDS011;46198;51.464;-0.066;2023-07-02T11:24:06;10.63;;;3.85;;
60354;SDS011;46198;51.464;-0.066;2023-07-02T11:26:36;7.20;;;3.25;;
60354;SDS011;46198;51.464;-0.066;2023-07-02T11:29:07;10.23;;;3.53;;
60354;SDS011;46198;51.464;-0.066;2023-07-02T11:31:39;8.55;;;3.85;;
60354;SDS011;46198;51.464;-0.066;2023-07-02T11:34:15;10.05;;;4.10;;
60354;SDS011;46198;51.464;-0.066;2023-07-02T11:36:45;8.15;;;3.65;;
60354;SDS011;46198;51.464;-0.066;2023-07-02T11:39:14;10.40;;;3.85;;
60354;SDS011;46198;51.464;-0.066;2023-07-02T11:41:43;7.88;;;3.25;;
60354;SDS011;46198;51.464;-0.066;2023-07-02T11:44:12;9.63;;;3.20;;
60354;SDS011;46198;51.464;-0.066;2023-07-02T11:46:40;7.55;;;2.97;;
60354;SDS011;46198;51.464;-0.066;2023-07-02T11:49:09;11.50;;;3.65;;
60354;SDS011;46198;51.464;-0.066;2023-07-02T11:51:38;8.57;;;3.10;;
60354;SDS011;46198;51.464;-0.066;2023-07-02T11:56:35;7.50;;;3.30;;
60354;SDS011;46198;51.464;-0.066;2023-07-02T11:59:05;7.93;;;4.22;;
60354;SDS011;46198;51.464;-0.066;2023-07-02T12:01:33;9.95;;;4.97;;
60354;SDS011;46198;51.464;-0.066;2023-07-02T12:04:01;9.32;;;4.97;;
60354;SDS011;46198;51.464;-0.066;2023-07-02T12:06:29;7.90;;;3.35;;
60354;SDS011;46198;51.464;-0.066;2023-07-02T12:08:59;7.85;;;2.83;;
60354;SDS011;46198;51.464;-0.066;2023-07-02T12:11:28;5.80;;;3.10;;
60354;SDS011;46198;51.464;-0.066;2023-07-02T12:13:56;11.23;;;3.40;;
60354;SDS011;46198;51.464;-0.066;2023-07-02T12:16:24;6.55;;;2.63;;
60354;SDS011;46198;51.464;-0.066;2023-07-02T12:18:53;6.10;;;2.90;;
60354;SDS011;46198;51.464;-0.066;2023-07-02T12:21:22;12.18;;;3.08;;
60354;SDS011;46198;51.464;-0.066;2023-07-02T12:23:50;6.57;;;3.22;;
60354;SDS011;46198;51.464;-0.066;2023-07-02T12:26:20;7.22;;;3.08;;
60354;SDS011;46198;51.464;-0.066;2023-07-02T12:28:48;8.02;;;3.05;;
60354;SDS011;46198;51.464;-0.066;2023-07-02T12:31:16;8.07;;;2.90;;
60354;SDS011;46198;51.464;-0.066;2023-07-02T12:33:44;8.52;;;2.95;;
60354;SDS011;46198;51.464;-0.066;2023-07-02T12:36:13;9.18;;;2.95;;
60354;SDS011;46198;51.464;-0.066;2023-07-02T12:38:43;8.15;;;2.83;;
60354;SDS011;46198;51.464;-0.066;2023-07-02T12:41:11;7.75;;;2.30;;
60354;SDS011;46198;51.464;-0.066;2023-07-02T12:43:41;6.72;;;2.90;;
60354;SDS011;46198;51.464;-0.066;2023-07-02T12:46:09;8.10;;;2.70;;
60354;SDS011;46198;51.464;-0.066;2023-07-02T12:48:37;8.07;;;3.10;;
60354;SDS011;46198;51.464;-0.066;2023-07-02T12:51:06;5.60;;;2.78;;
60354;SDS011;46198;51.464;-0.066;2023-07-02T12:53:34;8.80;;;3.00;;
60354;SDS011;46198;51.464;-0.066;2023-07-02T12:56:02;8.10;;;2.45;;
60354;SDS011;46198;51.464;-0.066;2023-07-02T12:58:31;9.00;;;3.17;;
60354;SDS011;46198;51.464;-0.066;2023-07-02T13:01:02;7.30;;;3.13;;
60354;SDS011;46198;51.464;-0.066;2023-07-02T13:03:31;10.25;;;3.08;;
60354;SDS011;46198;51.464;-0.066;2023-07-02T13:06:00;6.15;;;2.70;;
60354;SDS011;46198;51.464;-0.066;2023-07-02T13:08:28;3.83;;;2.33;;
60354;SDS011;46198;51.464;-0.066;2023-07-02T13:10:58;5.40;;;2.35;;
60354;SDS011;46198;51.464;-0.066;2023-07-02T13:13:26;8.10;;;3.00;;
60354;SDS011;46198;51.464;-0.066;2023-07-02T13:15:55;9.23;;;3.67;;
60354;SDS011;46198;51.464;-0.066;2023-07-02T13:18:25;6.07;;;2.78;;
60354;SDS011;46198;51.464;-0.066;2023-07-02T13:20:54;6.60;;;2.63;;
60354;SDS011;46198;51.464;-0.066;2023-07-02T13:23:23;7.22;;;2.90;;
60354;SDS011;46198;51.464;-0.066;2023-07-02T13:25:53;7.18;;;3.42;;
60354;SDS011;46198;51.464;-0.066;2023-07-02T13:28:22;10.27;;;3.17;;
60354;SDS011;46198;51.464;-0.066;2023-07-02T13:30:51;7.47;;;2.78;;
60354;SDS011;46198;51.464;-0.066;2023-07-02T13:33:20;6.45;;;4.07;;
60354;SDS011;46198;51.464;-0.066;2023-07-02T13:35:50;7.22;;;3.60;;
60354;SDS011;46198;51.464;-0.066;2023-07-02T13:38:27;9.35;;;4.18;;
60354;SDS011;46198;51.464;-0.066;2023-07-02T13:41:02;5.38;;;3.05;;
60354;SDS011;46198;51.464;-0.066;2023-07-02T13:43:39;8.68;;;3.65;;
60354;SDS011;46198;51.464;-0.066;2023-07-02T13:46:37;7.03;;;2.88;;
60354;SDS011;46198;51.464;-0.066;2023-07-02T13:49:12;7.18;;;3.20;;
60354;SDS011;46198;51.464;-0.066;2023-07-02T13:51:48;9.63;;;3.00;;
60354;SDS011;46198;51.464;-0.066;2023-07-02T13:56:46;10.13;;;3.10;;
60354;SDS011;46198;51.464;-0.066;2023-07-02T13:59:18;10.98;;;3.17;;
60354;SDS011;46198;51.464;-0.066;2023-07-02T14:01:47;8.65;;;3.08;;
60354;SDS011;46198;51.464;-0.066;2023-07-02T14:04:17;8.70;;;3.80;;
60354;SDS011;46198;51.464;-0.066;2023-07-02T14:06:46;7.75;;;3.60;;
60354;SDS011;46198;51.464;-0.066;2023-07-02T14:09:14;6.70;;;3.10;;
60354;SDS011;46198;51.464;-0.066;2023-07-02T14:11:43;6.38;;;2.80;;
60354;SDS011;46198;51.464;-0.066;2023-07-02T14:14:11;8.32;;;3.33;;
60354;SDS011;46198;51.464;-0.066;2023-07-02T14:16:44;6.63;;;2.95;;
60354;SDS011;46198;51.464;-0.066;2023-07-02T14:19:12;13.02;;;3.15;;
60354;SDS011;46198;51.464;-0.066;2023-07-02T14:21:42;7.10;;;3.08;;
60354;SDS011;46198;51.464;-0.066;2023-07-02T14:24:10;7.68;;;3.08;;
60354;SDS011;46198;51.464;-0.066;2023-07-02T14:26:39;7.68;;;3.00;;
60354;SDS011;46198;51.464;-0.066;2023-07-02T14:29:07;8.32;;;2.75;;
60354;SDS011;46198;51.464;-0.066;2023-07-02T14:31:37;6.97;;;2.90;;
60354;SDS011;46198;51.464;-0.066;2023-07-02T14:34:06;7.22;;;3.33;;
60354;SDS011;46198;51.464;-0.066;2023-07-02T14:36:35;9.10;;;3.42;;
60354;SDS011;46198;51.464;-0.066;2023-07-02T14:39:04;7.88;;;3.38;;
60354;SDS011;46198;51.464;-0.066;2023-07-02T14:41:32;5.63;;;2.90;;
60354;SDS011;46198;51.464;-0.066;2023-07-02T14:44:02;10.27;;;3.15;;
60354;SDS011;46198;51.464;-0.066;2023-07-02T14:46:36;12.65;;;4.43;;